Pagrindinis puslapis
METAR-TAF:

METAR-TAF

Oro uostai :

Amanas, Jordanija

platuma: 31-59N, ilguma: 035-59E, Aukštis: 767 m

Dabartinis oras

Ataskaita buvo paskelbta 1 valandą ir 24 minutes, ne 22:00 UTC
Ramus vėjas
Temperatūra 23°C
Drėgmė 47%
Slėgis 1018 hPa
Matomumas: 8000 m

METAR: OJAM 242200Z 00000KT 8000 NSC 23/11 Q1018 NOSIG

Laikas: 02:24 (23:24 UTC)

Prognozė

Ataskaita buvo paskelbta 6 valandos ir 24 minutes, ne 17:00 UTC
Prognozė galioja nuo 24 metu 18 UTC su 25 metu 24 UTC
Vėjas 8 kt iš Vakarų/Šiaurės Vakarų
Matomumas: 5000 m
migla
Tikimybė 30%
nuo 25 metu 03 UTC su 25 metu 06 UTC
Matomumas: 3000 m
migla

TAF: OJAM 241700Z 2418/2524 30008KT 5000 HZ NSC PROB30 2503/2506 3000 HZ

Orai ataskaitas ir orų prognozės (METAR, TAF).

turimą stotys yra geltonos ir raudonos taškus žemėlapyje.

Perkelti pele per norėdami pamatyti stoties vardą.

Tada spustelėkite, norėdami matyti oro stebėjimo ir prognozės.

Norėdami pakeisti žemėlapį: spustelėkite ant žalios mygtukų su juodo kryžiaus žemyn,; žalią mygtuką su brūkšneliu, jei norite nutolinti; arba žalių rodyklių gretimoms žemėlapius.


METAR-TAF: